createdAt,value
2023-01-26T00:01:10.733Z,8.00
2023-01-26T00:03:37.670Z,7.82
2023-01-26T00:06:05.894Z,6.50
2023-01-26T00:08:45.917Z,7.03
2023-01-26T00:11:14.993Z,4.80
2023-01-26T00:13:42.080Z,4.93
2023-01-26T00:16:11.823Z,6.82
2023-01-26T00:18:39.945Z,6.07
2023-01-26T00:21:08.179Z,6.95
2023-01-26T00:23:36.862Z,6.25
2023-01-26T00:26:06.720Z,6.20
2023-01-26T00:28:33.668Z,6.88
2023-01-26T00:31:08.550Z,6.25
2023-01-26T00:33:35.327Z,5.35
2023-01-26T00:36:02.096Z,3.33
2023-01-26T00:38:28.988Z,4.20
2023-01-26T00:40:56.033Z,4.03
2023-01-26T00:43:22.795Z,3.08
2023-01-26T00:45:49.547Z,5.30
2023-01-26T00:48:16.886Z,6.97
2023-01-26T00:50:43.794Z,7.13
2023-01-26T00:53:10.971Z,9.65
2023-01-26T00:55:38.208Z,8.32
2023-01-26T00:58:07.257Z,8.63
2023-01-26T01:00:35.820Z,9.63
2023-01-26T01:03:03.176Z,7.20
2023-01-26T01:05:31.886Z,7.70
2023-01-26T01:07:58.793Z,8.60
2023-01-26T01:10:27.717Z,8.48
2023-01-26T01:12:55.195Z,10.63
2023-01-26T01:15:22.167Z,9.55
2023-01-26T01:17:48.992Z,9.35
2023-01-26T01:20:16.038Z,9.10
2023-01-26T01:22:43.036Z,8.43
2023-01-26T01:25:09.912Z,10.35
2023-01-26T01:27:36.777Z,13.48
2023-01-26T01:30:07.773Z,9.00
2023-01-26T01:32:39.756Z,9.43
2023-01-26T01:35:07.291Z,7.57
2023-01-26T01:37:34.561Z,6.45
2023-01-26T01:40:01.392Z,7.20
2023-01-26T01:42:28.593Z,7.00
2023-01-26T01:45:26.268Z,8.75
2023-01-26T01:48:04.059Z,5.80
2023-01-26T01:50:36.973Z,8.25
2023-01-26T01:53:04.385Z,6.43
2023-01-26T01:55:31.943Z,6.80
2023-01-26T01:58:01.791Z,8.52
2023-01-26T02:00:28.533Z,6.78
2023-01-26T02:03:14.972Z,7.07
2023-01-26T02:05:44.750Z,6.30
2023-01-26T02:08:14.774Z,8.82
2023-01-26T02:10:43.851Z,7.35
2023-01-26T02:13:12.203Z,6.25
2023-01-26T02:15:39.014Z,6.28
2023-01-26T02:18:06.276Z,4.55
2023-01-26T02:20:57.162Z,7.35
2023-01-26T02:23:41.946Z,5.82
2023-01-26T02:26:16.585Z,6.38
2023-01-26T02:28:44.699Z,5.97
2023-01-26T02:31:12.918Z,5.60
2023-01-26T02:33:40.970Z,5.80
2023-01-26T02:36:23.847Z,6.32
2023-01-26T02:39:17.814Z,4.30
2023-01-26T02:42:04.737Z,3.83
2023-01-26T02:44:32.639Z,4.82
2023-01-26T02:46:59.474Z,2.63
2023-01-26T02:49:44.846Z,3.03
2023-01-26T02:52:11.732Z,1.88
2023-01-26T02:54:57.029Z,3.10
2023-01-26T02:57:24.243Z,2.47
2023-01-26T02:59:51.205Z,2.35
2023-01-26T03:02:18.465Z,2.10
2023-01-26T03:04:45.323Z,2.60
2023-01-26T03:07:12.240Z,2.50
2023-01-26T03:09:39.056Z,3.05
2023-01-26T03:12:06.079Z,3.00
2023-01-26T03:14:32.857Z,2.35
2023-01-26T03:16:59.863Z,3.20
2023-01-26T03:19:45.751Z,1.85
2023-01-26T03:22:31.073Z,1.95
2023-01-26T03:25:16.593Z,2.08
2023-01-26T03:27:48.275Z,1.85
2023-01-26T03:30:18.578Z,2.10
2023-01-26T03:32:45.449Z,2.17
2023-01-26T03:35:16.065Z,2.22
2023-01-26T03:37:44.585Z,1.88
2023-01-26T03:40:31.346Z,1.35
2023-01-26T03:43:16.495Z,1.45
2023-01-26T03:46:02.175Z,1.83
2023-01-26T03:48:47.754Z,2.00
2023-01-26T03:51:32.948Z,2.53
2023-01-26T03:54:18.632Z,2.78
2023-01-26T03:56:45.530Z,2.65
2023-01-26T03:59:15.535Z,1.90
2023-01-26T04:02:04.476Z,2.55
2023-01-26T04:04:50.216Z,3.33
2023-01-26T04:07:39.997Z,1.20
2023-01-26T04:10:08.723Z,1.77
2023-01-26T04:12:35.594Z,2.05
2023-01-26T04:15:21.343Z,2.60
2023-01-26T04:18:06.859Z,2.63
2023-01-26T04:20:52.294Z,2.33
2023-01-26T04:23:20.203Z,2.20
2023-01-26T04:25:48.548Z,2.08
2023-01-26T04:28:15.521Z,1.38
2023-01-26T04:30:42.533Z,0.93
2023-01-26T04:33:09.394Z,2.05
2023-01-26T04:35:36.184Z,2.35
2023-01-26T04:38:03.027Z,1.17
2023-01-26T04:40:29.819Z,1.10
2023-01-26T04:42:56.644Z,1.00
2023-01-26T04:45:23.464Z,1.00
2023-01-26T04:47:51.118Z,0.93
2023-01-26T04:50:17.988Z,1.65
2023-01-26T04:52:45.024Z,0.70
2023-01-26T04:55:11.911Z,1.50
2023-01-26T04:57:38.733Z,1.83
2023-01-26T05:00:06.227Z,0.70
2023-01-26T05:02:33.078Z,1.23
2023-01-26T05:04:59.931Z,0.93
2023-01-26T05:07:26.747Z,0.80
2023-01-26T05:09:53.579Z,0.77
2023-01-26T05:12:35.750Z,0.70
2023-01-26T05:15:02.913Z,0.57
2023-01-26T05:17:29.798Z,0.55
2023-01-26T05:19:56.648Z,0.95
2023-01-26T05:22:23.465Z,1.08
2023-01-26T05:24:50.403Z,1.23
2023-01-26T05:27:23.472Z,1.13
2023-01-26T05:29:51.762Z,0.75
2023-01-26T05:32:18.835Z,1.63
2023-01-26T05:34:46.110Z,0.77
2023-01-26T05:37:14.995Z,2.03
2023-01-26T05:39:42.435Z,1.73
2023-01-26T05:42:10.512Z,1.73
2023-01-26T05:44:37.518Z,2.05
2023-01-26T05:47:04.721Z,0.93
2023-01-26T05:49:31.649Z,1.65
2023-01-26T05:51:58.848Z,1.42
2023-01-26T05:54:26.073Z,1.42
2023-01-26T05:56:53.485Z,1.42
2023-01-26T05:59:20.542Z,1.48
2023-01-26T06:01:47.392Z,1.88
2023-01-26T06:04:14.279Z,1.45
2023-01-26T06:06:41.076Z,1.38
2023-01-26T06:09:08.108Z,1.02
2023-01-26T06:11:35.277Z,1.38
2023-01-26T06:14:02.250Z,1.60
2023-01-26T06:16:29.346Z,1.40
2023-01-26T06:18:56.369Z,1.23
2023-01-26T06:21:23.399Z,2.15
2023-01-26T06:23:50.208Z,2.03
2023-01-26T06:26:17.011Z,2.08
2023-01-26T06:28:43.905Z,2.40
2023-01-26T06:31:11.053Z,2.05
2023-01-26T06:33:38.802Z,2.22
2023-01-26T06:36:08.027Z,1.92
2023-01-26T06:38:34.788Z,1.65
2023-01-26T06:41:03.231Z,1.73
2023-01-26T06:43:31.082Z,1.95
2023-01-26T06:45:58.729Z,1.98
2023-01-26T06:48:27.316Z,2.75
2023-01-26T06:50:57.837Z,2.95
2023-01-26T06:53:33.647Z,2.35
2023-01-26T06:56:00.511Z,1.30
2023-01-26T06:58:27.492Z,1.75
2023-01-26T07:00:56.395Z,1.95
2023-01-26T07:03:23.680Z,1.90
2023-01-26T07:05:50.491Z,2.20
2023-01-26T07:08:17.275Z,0.93
2023-01-26T07:10:44.333Z,1.35
2023-01-26T07:13:11.108Z,0.90
2023-01-26T07:15:37.959Z,1.40
2023-01-26T07:18:05.227Z,2.53
2023-01-26T07:20:32.009Z,2.75
2023-01-26T07:23:01.714Z,1.95
2023-01-26T07:25:28.626Z,3.40
2023-01-26T07:27:59.436Z,2.22
2023-01-26T07:30:26.555Z,2.00
2023-01-26T07:32:53.385Z,1.88
2023-01-26T07:35:20.209Z,1.95
2023-01-26T07:37:47.002Z,3.22
2023-01-26T07:40:14.372Z,2.03
2023-01-26T07:42:41.274Z,2.78
2023-01-26T07:45:08.719Z,4.65
2023-01-26T07:47:36.255Z,2.78
2023-01-26T07:50:03.393Z,2.90
2023-01-26T07:52:30.185Z,4.13
2023-01-26T07:54:57.094Z,4.22
2023-01-26T07:57:24.032Z,3.60
2023-01-26T07:59:51.084Z,5.10
2023-01-26T08:02:17.992Z,7.00
2023-01-26T08:04:44.885Z,6.20
2023-01-26T08:07:11.770Z,7.30
2023-01-26T08:09:38.751Z,9.48
2023-01-26T08:12:05.856Z,7.03
2023-01-26T08:14:45.302Z,8.93
2023-01-26T08:17:13.601Z,7.40
2023-01-26T08:19:40.472Z,7.65
2023-01-26T08:22:07.425Z,6.38
2023-01-26T08:24:34.334Z,6.82
2023-01-26T08:27:01.918Z,6.70
2023-01-26T08:29:28.840Z,6.78
2023-01-26T08:31:55.693Z,8.27
2023-01-26T08:34:22.730Z,8.70
2023-01-26T08:36:49.658Z,8.82
2023-01-26T08:39:16.484Z,7.35
2023-01-26T08:41:43.514Z,10.93
2023-01-26T08:44:11.061Z,9.13
2023-01-26T08:46:38.062Z,10.73
2023-01-26T08:49:05.015Z,9.15
2023-01-26T08:51:31.836Z,10.80
2023-01-26T08:53:58.603Z,10.63
2023-01-26T08:56:25.376Z,9.70
2023-01-26T08:58:52.116Z,9.60
2023-01-26T09:01:19.290Z,8.43
2023-01-26T09:03:46.286Z,9.65
2023-01-26T09:06:14.734Z,10.98
2023-01-26T09:08:42.219Z,12.10
2023-01-26T09:11:09.917Z,14.68
2023-01-26T09:13:40.373Z,13.48
2023-01-26T09:16:12.559Z,13.63
2023-01-26T09:18:39.449Z,13.40
2023-01-26T09:21:08.138Z,8.93
2023-01-26T09:23:36.084Z,7.00
2023-01-26T09:26:03.674Z,7.03
2023-01-26T09:28:30.824Z,9.30
2023-01-26T09:30:57.875Z,11.30
2023-01-26T09:33:25.666Z,11.18
2023-01-26T09:35:52.756Z,9.38
2023-01-26T09:38:19.700Z,12.48
2023-01-26T09:41:07.766Z,10.05
2023-01-26T09:43:43.433Z,11.20
2023-01-26T09:46:39.354Z,11.30
2023-01-26T09:49:16.105Z,11.20
2023-01-26T09:51:51.203Z,9.68
2023-01-26T09:54:39.189Z,10.05
2023-01-26T09:57:18.354Z,7.28
2023-01-26T09:59:53.712Z,7.70
2023-01-26T10:02:28.806Z,9.02
2023-01-26T10:05:01.948Z,9.75
2023-01-26T10:07:29.770Z,12.45
2023-01-26T10:09:57.515Z,13.23
2023-01-26T10:12:36.927Z,14.50
2023-01-26T10:15:10.895Z,14.45
2023-01-26T10:17:42.330Z,13.95
2023-01-26T10:20:20.138Z,13.73
2023-01-26T10:22:50.251Z,12.60
2023-01-26T10:25:27.555Z,8.88
2023-01-26T10:27:55.007Z,8.55
2023-01-26T10:30:22.565Z,10.07
2023-01-26T10:32:52.761Z,10.50
2023-01-26T10:35:22.895Z,8.63
2023-01-26T10:37:52.767Z,8.18
2023-01-26T10:40:20.262Z,8.77
2023-01-26T10:42:58.805Z,10.98
2023-01-26T10:45:33.831Z,9.18
2023-01-26T10:48:03.970Z,9.18
2023-01-26T10:50:31.987Z,9.55
2023-01-26T10:53:00.272Z,7.97
2023-01-26T10:55:27.885Z,10.93
2023-01-26T10:57:54.815Z,8.55
2023-01-26T11:00:29.520Z,9.73
2023-01-26T11:03:20.263Z,10.48
2023-01-26T11:06:06.588Z,15.52
2023-01-26T11:08:39.341Z,14.23
2023-01-26T11:11:13.740Z,14.68
2023-01-26T11:13:40.794Z,13.20
2023-01-26T11:16:25.412Z,13.88
2023-01-26T11:19:00.651Z,15.68
2023-01-26T11:22:01.106Z,20.80
2023-01-26T11:24:39.520Z,14.00
2023-01-26T11:27:30.037Z,15.55
2023-01-26T11:30:12.043Z,15.77
2023-01-26T11:32:51.330Z,16.25
2023-01-26T11:35:27.084Z,20.08
2023-01-26T11:38:01.940Z,13.00
2023-01-26T11:40:54.536Z,13.85
2023-01-26T11:43:46.551Z,10.27
2023-01-26T11:46:39.133Z,13.40
2023-01-26T11:49:17.793Z,13.43
2023-01-26T11:52:11.288Z,14.25
2023-01-26T11:54:58.253Z,10.13
2023-01-26T11:57:30.089Z,8.93
2023-01-26T12:00:29.110Z,11.82
2023-01-26T12:03:12.198Z,10.85
2023-01-26T12:05:46.155Z,7.63
2023-01-26T12:08:26.616Z,11.23
2023-01-26T12:11:24.012Z,9.93
2023-01-26T12:13:54.982Z,11.68
2023-01-26T12:16:31.336Z,10.93
2023-01-26T12:19:11.868Z,11.77
2023-01-26T12:21:43.305Z,13.70
2023-01-26T12:24:43.399Z,12.68
2023-01-26T12:27:12.167Z,13.02
2023-01-26T12:29:51.621Z,15.20
2023-01-26T12:32:18.685Z,12.45
2023-01-26T12:34:46.007Z,10.93
2023-01-26T12:37:47.850Z,10.95
2023-01-26T12:40:34.842Z,15.70
2023-01-26T12:43:43.173Z,15.88
2023-01-26T12:46:11.760Z,12.63
2023-01-26T12:48:47.558Z,14.02
2023-01-26T12:51:27.565Z,8.43
2023-01-26T12:54:11.018Z,10.30
2023-01-26T12:56:45.318Z,10.02
2023-01-26T12:59:38.588Z,11.95
2023-01-26T13:02:24.746Z,13.38
2023-01-26T13:04:52.517Z,13.10
2023-01-26T13:07:40.357Z,17.95
2023-01-26T13:10:14.581Z,11.25
2023-01-26T13:12:56.280Z,8.15
2023-01-26T13:15:26.874Z,5.70
2023-01-26T13:17:54.878Z,6.05
2023-01-26T13:20:24.087Z,5.32
2023-01-26T13:22:51.720Z,6.47
2023-01-26T13:25:29.295Z,5.68
2023-01-26T13:27:57.465Z,7.80
2023-01-26T13:30:24.574Z,7.28
2023-01-26T13:32:54.610Z,5.53
2023-01-26T13:35:23.597Z,6.63
2023-01-26T13:37:53.397Z,7.60
2023-01-26T13:40:31.387Z,8.05
2023-01-26T13:43:20.727Z,7.65
2023-01-26T13:46:04.686Z,7.95
2023-01-26T13:48:42.199Z,5.18
2023-01-26T13:51:18.292Z,6.35
2023-01-26T13:53:48.376Z,8.77
2023-01-26T13:56:27.616Z,9.70
2023-01-26T13:59:02.685Z,7.97
2023-01-26T14:01:31.806Z,7.78
2023-01-26T14:04:07.791Z,10.18
2023-01-26T14:06:37.504Z,6.75
2023-01-26T14:09:07.049Z,7.60
2023-01-26T14:11:34.768Z,7.22
2023-01-26T14:14:02.788Z,7.63
2023-01-26T14:16:31.184Z,6.32
2023-01-26T14:19:17.639Z,6.03
2023-01-26T14:21:55.908Z,5.15
2023-01-26T14:24:39.969Z,5.63
2023-01-26T14:27:40.292Z,5.95
2023-01-26T14:30:29.922Z,7.72
2023-01-26T14:33:11.414Z,6.07
2023-01-26T14:35:38.219Z,7.70
2023-01-26T14:38:16.016Z,7.40
2023-01-26T14:40:48.277Z,5.60
2023-01-26T14:43:15.799Z,5.97
2023-01-26T14:46:09.542Z,5.80
2023-01-26T14:48:51.157Z,5.93
2023-01-26T14:51:21.576Z,8.38
2023-01-26T14:53:50.761Z,5.70
2023-01-26T14:56:20.306Z,7.60
2023-01-26T14:58:51.850Z,7.65
2023-01-26T15:01:27.093Z,4.10
2023-01-26T15:04:13.817Z,3.53
2023-01-26T15:06:40.599Z,2.92
2023-01-26T15:09:27.777Z,2.83
2023-01-26T15:12:17.222Z,2.97
2023-01-26T15:14:50.012Z,2.20
2023-01-26T15:17:40.469Z,3.42
2023-01-26T15:20:27.730Z,2.70
2023-01-26T15:22:54.930Z,4.15
2023-01-26T15:25:28.047Z,3.45
2023-01-26T15:27:59.653Z,4.43
2023-01-26T15:30:34.427Z,3.75
2023-01-26T15:33:02.161Z,4.45
2023-01-26T15:35:35.077Z,2.30
2023-01-26T15:38:13.020Z,3.22
2023-01-26T15:40:40.502Z,1.65
2023-01-26T15:43:15.287Z,3.08
2023-01-26T15:46:02.374Z,2.03
2023-01-26T15:48:31.772Z,2.42
2023-01-26T15:50:58.903Z,3.13
2023-01-26T15:53:25.884Z,2.00
2023-01-26T15:55:53.097Z,1.73
2023-01-26T15:58:20.392Z,2.15
2023-01-26T16:00:47.736Z,2.00
2023-01-26T16:03:21.114Z,2.55
2023-01-26T16:05:48.486Z,1.88
2023-01-26T16:08:16.988Z,1.38
2023-01-26T16:10:45.276Z,1.30
2023-01-26T16:13:15.092Z,1.52
2023-01-26T16:15:45.917Z,1.92
2023-01-26T16:18:12.961Z,3.17
2023-01-26T16:20:43.158Z,3.67
2023-01-26T16:23:36.301Z,2.83
2023-01-26T16:26:03.419Z,3.70
2023-01-26T16:28:30.349Z,2.83
2023-01-26T16:30:57.345Z,3.20
2023-01-26T16:33:24.810Z,4.82
2023-01-26T16:35:51.984Z,4.75
2023-01-26T16:38:18.930Z,3.70
2023-01-26T16:40:47.980Z,3.45
2023-01-26T16:43:23.806Z,3.38
2023-01-26T16:45:52.263Z,3.08
2023-01-26T16:48:19.717Z,4.57
2023-01-26T16:50:50.050Z,3.83
2023-01-26T16:53:27.294Z,4.28
2023-01-26T16:55:54.855Z,3.88
2023-01-26T16:58:23.020Z,2.95
2023-01-26T17:00:50.114Z,2.13
2023-01-26T17:03:17.035Z,3.95
2023-01-26T17:05:43.858Z,2.28
2023-01-26T17:08:10.889Z,1.63
2023-01-26T17:10:43.402Z,1.75
2023-01-26T17:13:17.173Z,2.60
2023-01-26T17:15:46.731Z,3.70
2023-01-26T17:18:14.667Z,2.50
2023-01-26T17:20:42.008Z,3.10
2023-01-26T17:23:09.723Z,2.35
2023-01-26T17:25:36.597Z,1.85
2023-01-26T17:28:03.463Z,1.92
2023-01-26T17:30:30.461Z,1.60
2023-01-26T17:32:57.714Z,1.67
2023-01-26T17:35:24.681Z,1.73
2023-01-26T17:37:52.142Z,2.10
2023-01-26T17:40:19.192Z,4.15
2023-01-26T17:42:46.070Z,5.85
2023-01-26T17:45:13.292Z,4.70
2023-01-26T17:47:40.374Z,3.80
2023-01-26T17:50:07.796Z,2.40
2023-01-26T17:52:36.595Z,4.30
2023-01-26T17:55:06.234Z,2.47
2023-01-26T17:57:33.894Z,2.75
2023-01-26T18:00:00.720Z,3.47
2023-01-26T18:02:27.629Z,3.38
2023-01-26T18:04:54.470Z,3.00
2023-01-26T18:07:21.302Z,2.17
2023-01-26T18:09:48.280Z,1.95
2023-01-26T18:12:15.169Z,2.65
2023-01-26T18:14:42.034Z,2.08
2023-01-26T18:17:08.919Z,2.47
2023-01-26T18:19:35.756Z,2.25
2023-01-26T18:22:02.576Z,2.80
2023-01-26T18:24:30.471Z,3.45
2023-01-26T18:26:57.402Z,4.28
2023-01-26T18:29:24.249Z,4.00
2023-01-26T18:31:51.433Z,2.60
2023-01-26T18:34:18.458Z,2.50
2023-01-26T18:36:45.418Z,4.63
2023-01-26T18:39:14.430Z,3.15
2023-01-26T18:41:43.336Z,2.85
2023-01-26T18:44:10.290Z,2.55
2023-01-26T18:46:37.264Z,3.10
2023-01-26T18:49:04.796Z,2.30
2023-01-26T18:51:35.142Z,2.25
2023-01-26T18:54:04.171Z,2.13
2023-01-26T18:56:31.481Z,1.63
2023-01-26T18:58:58.699Z,2.15
2023-01-26T19:01:26.264Z,1.90
2023-01-26T19:03:57.895Z,2.03
2023-01-26T19:06:26.356Z,2.30
2023-01-26T19:08:59.499Z,2.95
2023-01-26T19:11:31.472Z,4.05
2023-01-26T19:13:59.196Z,3.08
2023-01-26T19:16:27.012Z,3.53
2023-01-26T19:18:55.670Z,3.55
2023-01-26T19:21:24.763Z,3.33
2023-01-26T19:23:54.500Z,3.03
2023-01-26T19:26:25.724Z,4.20
2023-01-26T19:28:54.368Z,2.47
2023-01-26T19:31:22.702Z,2.25
2023-01-26T19:34:01.614Z,3.28
2023-01-26T19:36:30.863Z,2.63
2023-01-26T19:38:58.215Z,2.13
2023-01-26T19:41:25.813Z,2.08
2023-01-26T19:43:53.094Z,2.63
2023-01-26T19:46:21.599Z,3.78
2023-01-26T19:48:48.773Z,2.92
2023-01-26T19:51:27.129Z,3.35
2023-01-26T19:53:56.934Z,3.17
2023-01-26T19:56:29.454Z,2.17
2023-01-26T19:59:02.112Z,2.20
2023-01-26T20:01:31.288Z,2.80
2023-01-26T20:04:02.308Z,2.22
2023-01-26T20:06:31.420Z,2.40
2023-01-26T20:09:01.007Z,2.58
2023-01-26T20:11:29.790Z,1.85
2023-01-26T20:14:01.559Z,2.00
2023-01-26T20:16:29.403Z,2.80
2023-01-26T20:19:00.149Z,2.75
2023-01-26T20:21:28.406Z,2.65
2023-01-26T20:23:56.366Z,2.47
2023-01-26T20:26:25.907Z,2.55
2023-01-26T20:28:54.521Z,2.55
2023-01-26T20:31:25.216Z,2.17
2023-01-26T20:33:54.237Z,3.22
2023-01-26T20:36:24.756Z,2.42
2023-01-26T20:38:52.375Z,3.47
2023-01-26T20:41:23.284Z,3.00
2023-01-26T20:43:59.770Z,3.50
2023-01-26T20:46:37.694Z,3.08
2023-01-26T20:49:05.837Z,3.10
2023-01-26T20:51:35.952Z,3.50
2023-01-26T20:54:06.581Z,3.08
2023-01-26T20:56:34.456Z,3.40
2023-01-26T20:59:02.887Z,2.10
2023-01-26T21:01:31.013Z,1.90
2023-01-26T21:03:58.113Z,2.13
2023-01-26T21:06:26.267Z,1.95
2023-01-26T21:08:55.634Z,2.53
2023-01-26T21:11:25.071Z,3.03
2023-01-26T21:13:53.136Z,1.90
2023-01-26T21:16:20.429Z,1.60
2023-01-26T21:18:48.053Z,2.88
2023-01-26T21:21:19.102Z,2.60
2023-01-26T21:23:47.163Z,1.90
2023-01-26T21:26:25.598Z,1.50
2023-01-26T21:28:58.679Z,1.70
2023-01-26T21:31:28.021Z,1.52
2023-01-26T21:33:56.809Z,1.90
2023-01-26T21:36:27.400Z,1.52
2023-01-26T21:38:57.389Z,1.35
2023-01-26T21:41:48.929Z,1.85
2023-01-26T21:44:21.634Z,1.65
2023-01-26T21:46:51.327Z,2.10
2023-01-26T21:49:19.250Z,1.80
2023-01-26T21:52:05.012Z,1.67
2023-01-26T21:54:32.484Z,1.15
2023-01-26T21:57:01.340Z,1.90
2023-01-26T21:59:29.815Z,2.03
2023-01-26T22:01:58.039Z,1.27
2023-01-26T22:04:30.471Z,2.53
2023-01-26T22:06:57.710Z,1.38
2023-01-26T22:09:25.264Z,2.67
2023-01-26T22:11:52.237Z,0.80
2023-01-26T22:14:27.474Z,1.55
2023-01-26T22:16:54.551Z,2.40
2023-01-26T22:19:21.432Z,1.42
2023-01-26T22:21:48.380Z,1.83
2023-01-26T22:24:15.404Z,1.33
2023-01-26T22:26:42.483Z,1.73
2023-01-26T22:29:11.962Z,1.70
2023-01-26T22:31:39.329Z,1.73
2023-01-26T22:34:06.269Z,1.58
2023-01-26T22:36:33.584Z,1.73
2023-01-26T22:39:00.926Z,1.60
2023-01-26T22:41:30.006Z,1.65
2023-01-26T22:43:59.111Z,1.33
2023-01-26T22:46:27.629Z,1.30
2023-01-26T22:48:57.297Z,1.55
2023-01-26T22:51:26.788Z,1.30
2023-01-26T22:53:54.894Z,1.73
2023-01-26T22:56:22.335Z,1.40
2023-01-26T22:58:58.178Z,1.60
2023-01-26T23:01:31.234Z,0.68
2023-01-26T23:03:59.182Z,0.90
2023-01-26T23:06:26.474Z,1.17
2023-01-26T23:08:53.919Z,1.30
2023-01-26T23:11:26.782Z,0.95
2023-01-26T23:13:55.620Z,1.42
2023-01-26T23:16:23.950Z,1.08
2023-01-26T23:18:52.328Z,1.35
2023-01-26T23:21:19.487Z,2.60
2023-01-26T23:23:46.665Z,1.35
2023-01-26T23:26:13.763Z,1.00
2023-01-26T23:28:42.521Z,1.20
2023-01-26T23:31:10.587Z,1.25
2023-01-26T23:33:38.432Z,0.90
2023-01-26T23:36:06.569Z,1.45
2023-01-26T23:38:33.594Z,0.85
2023-01-26T23:41:00.633Z,0.60
2023-01-26T23:43:28.007Z,1.67
2023-01-26T23:45:56.873Z,1.10
2023-01-26T23:48:24.799Z,0.90
2023-01-26T23:51:03.984Z,1.52
2023-01-26T23:53:31.321Z,1.40
2023-01-26T23:56:00.610Z,1.02
2023-01-26T23:58:27.462Z,0.82
